Time;durP1;ratioP1;P1;durP2;ratioP2;P2;SDS_P1;SDS_P2;PMS_P1;PMS_P2;Temp;Humidity;BMP_temperature;BMP_pressure;BME280_temperature;BME280_humidity;BME280_pressure;Samples;Min_cycle;Max_cycle;Signal;HPM_P1;HPM_P2
2022/05/18 00:01:12;;;;;;;4.40;4.00;;;18.80;99.90;;;;;;5074856;28;20203;-70
2022/05/18 00:03:42;;;;;;;4.55;4.18;;;18.80;99.90;;;;;;5074812;28;20229;-70
2022/05/18 00:06:10;;;;;;;6.20;4.78;;;18.70;99.90;;;;;;5075064;28;20229;-70
2022/05/18 00:08:37;;;;;;;5.10;4.60;;;18.70;99.90;;;;;;5074820;28;20260;-69
2022/05/18 00:11:06;;;;;;;4.28;3.63;;;18.80;99.90;;;;;;5074900;28;20225;-70
2022/05/18 00:13:35;;;;;;;4.40;4.10;;;18.80;99.90;;;;;;5074776;28;20195;-69
2022/05/18 00:16:01;;;;;;;6.00;4.70;;;18.80;99.90;;;;;;5074612;28;20233;-69
2022/05/18 00:18:28;;;;;;;4.40;4.10;;;18.80;99.90;;;;;;5074709;28;20203;-69
2022/05/18 00:20:55;;;;;;;4.60;4.20;;;18.70;99.90;;;;;;5074146;28;20203;-70
2022/05/18 00:23:22;;;;;;;4.60;4.20;;;18.70;99.90;;;;;;5074171;28;20229;-70
2022/05/18 00:25:49;;;;;;;5.15;4.63;;;18.80;99.90;;;;;;5074483;28;20318;-69
2022/05/18 00:28:16;;;;;;;4.50;4.20;;;18.70;99.90;;;;;;5074423;28;20203;-69
2022/05/18 00:30:44;;;;;;;4.70;4.40;;;18.60;99.90;;;;;;5074419;28;20289;-69
2022/05/18 00:33:11;;;;;;;5.70;4.57;;;18.70;99.90;;;;;;5074078;28;20261;-70
2022/05/18 00:35:40;;;;;;;5.75;5.15;;;18.70;99.90;;;;;;5073978;28;20228;-70
2022/05/18 00:38:08;;;;;;;5.65;5.10;;;18.60;99.90;;;;;;5074243;28;20551;-69
2022/05/18 00:40:36;;;;;;;4.85;4.45;;;18.70;99.90;;;;;;5074223;28;20210;-70
2022/05/18 00:43:03;;;;;;;5.45;5.05;;;18.70;99.90;;;;;;5073699;28;20223;-69
2022/05/18 00:45:30;;;;;;;5.13;4.72;;;18.70;99.90;;;;;;5073976;28;20701;-70
2022/05/18 00:47:58;;;;;;;5.65;5.13;;;18.70;99.90;;;;;;5073822;28;20774;-70
2022/05/18 00:50:30;;;;;;;6.00;5.40;;;18.70;99.90;;;;;;5074029;28;20210;-69
2022/05/18 00:53:01;;;;;;;5.70;5.18;;;18.60;99.90;;;;;;5073901;28;20205;-69
2022/05/18 00:55:31;;;;;;;5.38;4.97;;;18.60;99.90;;;;;;5073647;28;20235;-69
2022/05/18 00:58:07;;;;;;;6.00;5.40;;;18.60;99.90;;;;;;5073723;28;20183;-69
2022/05/18 01:00:36;;;;;;;5.93;5.40;;;18.60;99.90;;;;;;5073642;28;20754;-69
2022/05/18 01:03:11;;;;;;;6.35;5.65;;;18.60;99.90;;;;;;5073687;28;20219;-70
2022/05/18 01:05:40;;;;;;;5.65;5.15;;;18.50;99.90;;;;;;5073557;28;20712;-70
2022/05/18 01:08:07;;;;;;;6.38;5.78;;;18.50;99.90;;;;;;5073582;28;20683;-69
2022/05/18 01:10:34;;;;;;;6.45;5.55;;;18.40;99.90;;;;;;5073832;28;20199;-69
2022/05/18 01:13:02;;;;;;;5.88;5.32;;;18.30;99.90;;;;;;5073507;28;20619;-69
2022/05/18 01:15:30;;;;;;;6.97;6.25;;;18.20;99.90;;;;;;5073758;28;20218;-69
2022/05/18 01:17:58;;;;;;;5.88;5.28;;;18.20;99.90;;;;;;5073707;28;20202;-69
2022/05/18 01:20:30;;;;;;;5.47;5.07;;;18.20;99.90;;;;;;5073700;28;20211;-69
2022/05/18 01:23:15;;;;;;;5.05;4.63;;;18.10;99.90;;;;;;5073336;28;20199;-70
2022/05/18 01:25:54;;;;;;;5.57;5.07;;;18.10;99.90;;;;;;5073554;28;20253;-70
2022/05/18 01:28:26;;;;;;;5.60;4.63;;;18.10;99.90;;;;;;5073622;28;20256;-69
2022/05/18 01:30:53;;;;;;;5.10;4.60;;;18.00;99.90;;;;;;5073598;28;20203;-69
2022/05/18 01:33:21;;;;;;;6.28;5.68;;;18.00;99.90;;;;;;5072460;28;20222;-69
2022/05/18 01:35:49;;;;;;;5.78;5.20;;;18.00;99.90;;;;;;5073363;28;20249;-69
2022/05/18 01:38:17;;;;;;;5.82;5.22;;;18.00;99.90;;;;;;5073493;28;20289;-70
2022/05/18 01:40:55;;;;;;;6.28;5.70;;;17.90;99.90;;;;;;5073523;28;20198;-69
2022/05/18 01:43:26;;;;;;;8.23;5.78;;;17.90;99.90;;;;;;5073269;28;20218;-69
2022/05/18 01:45:55;;;;;;;7.15;6.55;;;17.90;99.90;;;;;;5073198;28;20222;-70
2022/05/18 01:48:25;;;;;;;5.75;5.25;;;17.80;99.90;;;;;;5073415;28;20198;-70
2022/05/18 01:50:53;;;;;;;6.32;5.82;;;17.90;99.90;;;;;;5073460;28;20202;-69
2022/05/18 01:53:20;;;;;;;6.05;5.55;;;17.80;99.90;;;;;;5073045;28;20209;-70
2022/05/18 01:55:47;;;;;;;6.85;5.93;;;17.80;99.90;;;;;;5073227;28;20226;-69
2022/05/18 01:58:16;;;;;;;5.80;5.20;;;17.70;99.90;;;;;;5073317;28;20205;-70
2022/05/18 02:00:46;;;;;;;6.45;5.85;;;17.70;99.90;;;;;;5073299;28;20209;-69
2022/05/18 02:03:13;;;;;;;6.50;5.80;;;17.70;99.90;;;;;;5072868;28;20206;-69
2022/05/18 02:05:41;;;;;;;5.90;5.40;;;17.70;99.90;;;;;;5073222;28;20309;-70
2022/05/18 02:08:08;;;;;;;5.70;5.20;;;17.70;99.90;;;;;;5073213;28;20210;-69
2022/05/18 02:10:35;;;;;;;6.20;5.45;;;17.70;99.90;;;;;;5073174;28;20203;-70
2022/05/18 02:13:03;;;;;;;6.53;5.90;;;17.70;99.90;;;;;;5072775;28;20207;-70
2022/05/18 02:15:30;;;;;;;5.60;5.10;;;17.60;99.90;;;;;;5073108;28;20215;-70
2022/05/18 02:17:58;;;;;;;5.60;5.10;;;17.60;99.90;;;;;;5073106;28;20198;-70
2022/05/18 02:20:25;;;;;;;5.90;5.40;;;17.60;99.90;;;;;;5072886;28;20542;-70
2022/05/18 02:22:52;;;;;;;5.82;5.25;;;17.50;99.90;;;;;;5072849;28;20297;-69
2022/05/18 02:25:19;;;;;;;5.95;5.35;;;17.40;99.90;;;;;;5072847;28;20253;-69
2022/05/18 02:27:47;;;;;;;5.68;5.18;;;17.50;99.90;;;;;;5073088;28;20230;-69
2022/05/18 02:30:15;;;;;;;6.05;5.55;;;17.50;99.90;;;;;;5073405;28;20665;-70
2022/05/18 02:32:42;;;;;;;6.13;5.53;;;17.40;99.90;;;;;;5072824;28;20260;-69
2022/05/18 02:35:11;;;;;;;6.18;5.57;;;17.40;99.90;;;;;;5072870;28;20205;-69
2022/05/18 02:37:38;;;;;;;6.25;5.57;;;17.20;99.90;;;;;;5072667;28;20206;-69
2022/05/18 02:40:06;;;;;;;6.20;5.60;;;17.10;99.90;;;;;;5072820;28;20207;-69
2022/05/18 02:42:33;;;;;;;6.20;5.45;;;17.00;99.90;;;;;;5072611;28;20205;-70
2022/05/18 02:45:00;;;;;;;7.47;6.80;;;16.90;99.90;;;;;;5075698;28;20226;-70
2022/05/18 02:47:27;;;;;;;6.88;6.03;;;16.90;99.90;;;;;;5076515;28;20206;-69
2022/05/18 02:49:54;;;;;;;6.13;5.55;;;16.90;99.90;;;;;;5076390;28;20298;-69
2022/05/18 02:52:22;;;;;;;5.65;5.15;;;17.00;99.90;;;;;;5076058;28;20206;-70
2022/05/18 02:57:33;;;;;;;6.13;5.63;;;17.00;99.90;;;;;;5076116;28;20252;-69
2022/05/18 03:00:00;;;;;;;6.60;6.10;;;17.00;99.90;;;;;;5076019;28;20690;-70
2022/05/18 03:02:27;;;;;;;8.23;6.57;;;17.10;99.90;;;;;;5075947;28;20202;-70
2022/05/18 03:04:54;;;;;;;6.97;6.32;;;17.10;99.90;;;;;;5076158;28;20701;-70
2022/05/18 03:07:22;;;;;;;7.80;6.78;;;17.10;99.90;;;;;;5075831;28;20754;-69
2022/05/18 03:09:49;;;;;;;6.43;5.82;;;17.10;99.90;;;;;;5075713;28;20205;-70
2022/05/18 03:12:16;;;;;;;6.40;5.90;;;17.10;99.90;;;;;;5075833;28;20301;-70
2022/05/18 03:14:42;;;;;;;6.50;5.90;;;17.10;99.90;;;;;;5075941;28;20212;-70
2022/05/18 03:17:09;;;;;;;13.88;6.57;;;17.00;99.90;;;;;;5075869;28;20228;-69
2022/05/18 03:19:36;;;;;;;6.78;6.18;;;17.00;99.90;;;;;;5075858;28;20207;-69
2022/05/18 03:24:49;;;;;;;6.75;6.15;;;17.00;99.90;;;;;;5075513;28;20695;-69
2022/05/18 03:27:16;;;;;;;6.13;5.45;;;16.80;99.90;;;;;;5075813;28;20586;-69
2022/05/18 03:29:43;;;;;;;6.50;6.00;;;16.70;99.90;;;;;;5075683;28;20564;-69
2022/05/18 03:32:09;;;;;;;6.22;5.28;;;16.50;99.90;;;;;;5075431;28;20217;-70
2022/05/18 03:34:36;;;;;;;7.38;6.60;;;16.30;99.90;;;;;;5075426;28;20202;-69
2022/05/18 03:37:04;;;;;;;6.50;5.90;;;16.40;99.90;;;;;;5075498;28;20316;-69
2022/05/18 03:39:31;;;;;;;6.90;6.20;;;16.30;99.90;;;;;;5075452;28;20296;-69
2022/05/18 03:41:59;;;;;;;6.80;6.10;;;16.40;99.90;;;;;;5075441;28;20204;-69
2022/05/18 03:44:26;;;;;;;6.43;5.82;;;16.40;99.90;;;;;;5074952;28;20225;-69
2022/05/18 03:46:53;;;;;;;5.80;5.30;;;16.40;99.90;;;;;;5075324;28;20222;-69
2022/05/18 03:49:20;;;;;;;7.00;6.00;;;16.40;99.90;;;;;;5075193;28;20564;-69
2022/05/18 03:51:47;;;;;;;6.32;5.78;;;16.50;99.90;;;;;;5075184;28;20292;-69
2022/05/18 03:54:14;;;;;;;7.47;6.78;;;16.50;99.90;;;;;;5074833;28;20275;-69
2022/05/18 03:56:41;;;;;;;6.57;5.53;;;16.50;99.90;;;;;;5074376;28;20255;-69
2022/05/18 03:59:09;;;;;;;6.40;5.80;;;16.60;99.90;;;;;;5074935;28;20293;-69
2022/05/18 04:01:36;;;;;;;7.55;6.75;;;16.40;99.90;;;;;;5075184;28;20207;-69
2022/05/18 04:04:03;;;;;;;6.68;6.07;;;16.30;99.90;;;;;;5074462;28;22168;-70
2022/05/18 04:06:30;;;;;;;7.75;6.95;;;16.30;99.90;;;;;;5074595;28;20232;-69
2022/05/18 04:08:56;;;;;;;8.68;7.70;;;16.10;99.90;;;;;;5074631;28;20217;-69
2022/05/18 04:11:23;;;;;;;9.80;8.85;;;16.00;99.90;;;;;;5074828;28;20298;-69
2022/05/18 04:13:50;;;;;;;8.02;7.22;;;16.00;99.90;;;;;;5074464;28;20667;-69
2022/05/18 04:16:19;;;;;;;10.25;7.65;;;16.10;99.90;;;;;;5074438;28;20240;-69
2022/05/18 04:18:45;;;;;;;8.77;7.88;;;16.10;99.90;;;;;;5074679;28;20206;-69
2022/05/18 04:21:12;;;;;;;8.13;7.13;;;16.20;99.90;;;;;;5074405;28;20205;-69
2022/05/18 04:23:41;;;;;;;7.45;6.57;;;16.30;99.90;;;;;;5074430;28;20206;-69
2022/05/18 04:26:08;;;;;;;7.15;6.45;;;16.30;99.90;;;;;;5074203;28;20235;-69
2022/05/18 04:28:35;;;;;;;7.22;6.63;;;16.30;99.90;;;;;;5074569;28;20571;-69
2022/05/18 04:31:02;;;;;;;7.18;6.47;;;16.40;99.90;;;;;;5074338;28;20202;-70
2022/05/18 04:33:30;;;;;;;6.70;6.10;;;16.40;99.90;;;;;;5074242;28;20563;-69
2022/05/18 04:36:01;;;;;;;7.45;6.75;;;16.40;99.90;;;;;;5073972;28;20249;-69
2022/05/18 04:38:28;;;;;;;7.50;6.80;;;16.50;99.90;;;;;;5074330;28;20206;-69
2022/05/18 04:40:56;;;;;;;7.40;6.70;;;16.60;99.90;;;;;;5074234;28;20198;-69
2022/05/18 04:43:23;;;;;;;6.30;5.75;;;16.70;99.90;;;;;;5073921;28;20199;-70
2022/05/18 04:45:51;;;;;;;6.80;6.20;;;16.80;99.90;;;;;;5073990;28;20234;-70
2022/05/18 04:48:20;;;;;;;7.85;7.00;;;16.80;99.90;;;;;;5073904;28;20695;-69
2022/05/18 04:50:48;;;;;;;7.05;6.40;;;16.90;99.90;;;;;;5073903;28;20622;-69
2022/05/18 04:53:16;;;;;;;6.82;6.22;;;16.80;99.90;;;;;;5073660;28;20213;-70
2022/05/18 04:55:43;;;;;;;8.05;6.72;;;16.70;99.90;;;;;;5073846;28;20218;-69
2022/05/18 04:58:11;;;;;;;7.40;6.80;;;16.50;99.90;;;;;;5073987;28;20567;-69
2022/05/18 05:00:38;;;;;;;10.50;7.03;;;16.40;99.90;;;;;;5073937;28;20208;-69
2022/05/18 05:03:05;;;;;;;8.43;7.55;;;16.40;99.90;;;;;;5073764;28;20214;-69
2022/05/18 05:05:32;;;;;;;9.07;7.85;;;16.30;99.90;;;;;;5073663;28;20241;-70
2022/05/18 05:08:00;;;;;;;9.02;8.13;;;16.40;99.90;;;;;;5073904;28;20210;-69
2022/05/18 05:10:27;;;;;;;8.07;7.28;;;16.40;99.90;;;;;;5073708;28;20212;-69
2022/05/18 05:12:54;;;;;;;8.30;7.50;;;16.50;99.90;;;;;;5073532;28;20199;-69
2022/05/18 05:15:21;;;;;;;7.88;7.18;;;16.60;99.90;;;;;;5073675;28;20223;-70
2022/05/18 05:17:48;;;;;;;8.07;7.28;;;16.80;99.90;;;;;;5073779;28;20206;-69
2022/05/18 05:20:15;;;;;;;7.10;6.40;;;16.80;99.90;;;;;;5073729;28;20628;-69
2022/05/18 05:22:42;;;;;;;8.73;7.13;;;17.00;99.90;;;;;;5073388;28;20199;-69
2022/05/18 05:25:11;;;;;;;7.13;6.53;;;17.10;99.90;;;;;;5073473;28;20219;-70
2022/05/18 05:27:37;;;;;;;7.13;6.43;;;17.20;99.90;;;;;;5073665;28;20542;-69
2022/05/18 05:30:05;;;;;;;7.15;6.45;;;17.20;99.90;;;;;;5073630;28;20621;-69
2022/05/18 05:32:33;;;;;;;7.97;6.28;;;17.20;99.90;;;;;;5073227;28;20741;-69
2022/05/18 05:35:00;;;;;;;7.40;6.70;;;17.30;99.90;;;;;;5073445;28;20205;-70
2022/05/18 05:37:27;;;;;;;7.32;6.72;;;17.40;99.90;;;;;;5073281;28;20238;-69
2022/05/18 05:39:55;;;;;;;8.07;6.97;;;17.40;99.90;;;;;;5073425;28;20221;-70
2022/05/18 05:42:23;;;;;;;8.00;7.20;;;17.50;99.90;;;;;;5073027;28;20214;-69
2022/05/18 05:44:50;;;;;;;7.88;7.18;;;17.60;99.90;;;;;;5073196;28;20229;-69
2022/05/18 05:47:17;;;;;;;7.40;6.60;;;17.60;99.90;;;;;;5073193;28;20212;-70
2022/05/18 05:49:44;;;;;;;7.72;6.82;;;17.60;99.90;;;;;;5073257;28;20209;-69
2022/05/18 05:52:11;;;;;;;8.70;7.28;;;17.70;99.90;;;;;;5073150;28;20203;-69
2022/05/18 05:54:39;;;;;;;7.30;6.70;;;17.70;99.90;;;;;;5072981;28;20668;-69
2022/05/18 05:57:06;;;;;;;7.72;6.90;;;17.70;99.90;;;;;;5073349;28;20227;-69
2022/05/18 05:59:36;;;;;;;7.78;7.00;;;17.90;99.90;;;;;;5073143;28;20556;-69
2022/05/18 06:02:06;;;;;;;7.50;6.80;;;17.90;99.90;;;;;;5073345;28;20213;-69
2022/05/18 06:04:34;;;;;;;8.02;7.20;;;18.00;99.90;;;;;;5073204;28;20206;-69
2022/05/18 06:07:01;;;;;;;7.80;7.10;;;18.00;99.90;;;;;;5072878;28;20226;-70
2022/05/18 06:09:28;;;;;;;8.25;7.35;;;18.00;99.90;;;;;;5072995;28;20693;-70
2022/05/18 06:11:55;;;;;;;7.70;6.93;;;17.90;99.90;;;;;;5073223;28;20659;-70
2022/05/18 06:14:22;;;;;;;7.95;6.75;;;18.00;99.90;;;;;;5073012;28;20203;-69
2022/05/18 06:16:51;;;;;;;6.60;6.10;;;18.00;99.90;;;;;;5073162;28;20214;-69
2022/05/18 06:19:18;;;;;;;7.30;6.60;;;18.00;99.90;;;;;;5075155;28;20217;-70
2022/05/18 06:21:46;;;;;;;8.00;6.95;;;18.20;99.90;;;;;;5076686;28;20203;-70
2022/05/18 06:24:14;;;;;;;7.28;6.57;;;18.30;99.90;;;;;;5076517;28;20726;-69
2022/05/18 06:26:41;;;;;;;9.07;6.75;;;18.40;99.90;;;;;;5076745;28;20226;-70
2022/05/18 06:29:08;;;;;;;8.25;6.72;;;18.40;99.90;;;;;;5076653;28;20206;-70
2022/05/18 06:31:35;;;;;;;9.27;7.25;;;18.60;99.90;;;;;;5076742;28;20200;-69
2022/05/18 06:34:04;;;;;;;7.15;6.45;;;18.60;99.90;;;;;;5076267;28;20208;-69
2022/05/18 06:36:31;;;;;;;8.10;6.60;;;18.70;99.90;;;;;;5076299;28;20219;-69
2022/05/18 06:38:58;;;;;;;7.28;6.57;;;18.80;99.90;;;;;;5076603;28;20585;-69
2022/05/18 06:41:25;;;;;;;8.10;7.30;;;18.90;99.90;;;;;;5076599;28;20242;-69
2022/05/18 06:43:54;;;;;;;8.40;7.55;;;18.90;99.90;;;;;;5076365;28;20207;-69
2022/05/18 06:46:22;;;;;;;7.55;6.80;;;19.00;99.90;;;;;;5076098;28;20223;-69
2022/05/18 06:48:50;;;;;;;7.88;7.10;;;19.10;99.90;;;;;;5076411;28;20292;-69
2022/05/18 06:51:22;;;;;;;7.25;6.55;;;19.10;99.90;;;;;;5076377;28;20209;-70
2022/05/18 06:53:51;;;;;;;7.20;6.00;;;19.20;99.90;;;;;;5076056;28;20225;-69
2022/05/18 06:56:19;;;;;;;7.28;6.57;;;19.30;99.90;;;;;;5076232;28;20470;-69
2022/05/18 06:58:47;;;;;;;7.10;6.40;;;19.40;99.90;;;;;;5076329;28;20264;-70
2022/05/18 07:01:14;;;;;;;8.20;6.83;;;19.50;99.90;;;;;;5076143;28;20290;-69
2022/05/18 07:03:41;;;;;;;7.80;7.07;;;19.70;99.90;;;;;;5075792;28;20447;-69
2022/05/18 07:06:08;;;;;;;7.80;7.10;;;19.80;99.90;;;;;;5076312;28;20570;-69
2022/05/18 07:08:37;;;;;;;8.57;7.67;;;20.00;99.90;;;;;;5076116;28;20482;-69
2022/05/18 07:11:04;;;;;;;8.03;7.33;;;20.20;99.90;;;;;;5075933;28;20926;-69
2022/05/18 07:13:31;;;;;;;7.63;6.87;;;20.60;99.90;;;;;;5075615;28;20786;-69
2022/05/18 07:15:59;;;;;;;7.77;6.97;;;20.70;99.90;;;;;;5075957;28;20818;-69
2022/05/18 07:18:30;;;;;;;7.80;6.77;;;20.70;99.90;;;;;;5075897;28;20452;-69
2022/05/18 07:20:57;;;;;;;7.60;6.47;;;20.70;99.90;;;;;;5075895;28;20442;-70
2022/05/18 07:23:25;;;;;;;11.17;6.57;;;20.70;99.90;;;;;;5075640;28;20444;-69
2022/05/18 07:25:55;;;;;;;7.40;6.57;;;20.80;99.90;;;;;;5075940;28;20487;-70
2022/05/18 07:28:22;;;;;;;6.73;6.23;;;20.80;99.90;;;;;;5075729;28;20455;-70
2022/05/18 07:30:49;;;;;;;6.50;5.90;;;20.80;99.90;;;;;;5074498;28;20444;-69
2022/05/18 07:33:16;;;;;;;6.33;5.73;;;20.90;99.90;;;;;;5075514;28;20467;-69
2022/05/18 07:35:43;;;;;;;7.07;6.37;;;20.90;99.90;;;;;;5075516;28;20806;-69
2022/05/18 07:38:11;;;;;;;6.37;5.87;;;21.00;99.90;;;;;;5075607;28;20440;-69
2022/05/18 07:40:37;;;;;;;6.57;5.97;;;21.20;99.90;;;;;;5075394;28;20448;-69
2022/05/18 07:43:06;;;;;;;7.70;6.13;;;21.40;99.90;;;;;;5075056;28;20441;-69
2022/05/18 07:45:33;;;;;;;6.63;5.97;;;21.50;99.90;;;;;;5075160;28;20489;-69
2022/05/18 07:48:00;;;;;;;6.00;5.50;;;21.60;99.90;;;;;;5075405;28;20463;-69
2022/05/18 07:50:26;;;;;;;7.30;5.57;;;21.70;99.90;;;;;;5075308;28;20474;-69
2022/05/18 07:52:57;;;;;;;6.27;5.53;;;21.60;99.90;;;;;;5074919;28;20540;-70
2022/05/18 07:55:24;;;;;;;5.70;5.10;;;21.60;99.90;;;;;;5074806;28;20562;-69
2022/05/18 07:57:51;;;;;;;5.70;5.20;;;21.70;99.90;;;;;;5075132;28;20440;-70
2022/05/18 08:00:21;;;;;;;6.13;5.30;;;21.90;99.90;;;;;;5075114;28;20452;-69
2022/05/18 08:02:48;;;;;;;6.63;5.17;;;22.20;99.90;;;;;;5074707;28;20957;-69
2022/05/18 08:05:15;;;;;;;5.67;5.07;;;22.50;99.90;;;;;;5074729;28;20561;-69
2022/05/18 08:07:45;;;;;;;5.10;4.67;;;23.00;99.90;;;;;;5074927;28;20501;-69
2022/05/18 08:15:44;;;;;;;6.53;4.60;;;26.00;92.20;;;;;;5074671;28;20950;-70
2022/05/18 08:18:11;;;;;;;5.33;4.93;;;26.90;88.60;;;;;;5074430;28;20441;-71
2022/05/18 08:20:40;;;;;;;5.60;5.10;;;27.50;88.80;;;;;;5074669;28;20533;-70
2022/05/18 08:23:08;;;;;;;5.20;4.70;;;27.80;84.70;;;;;;5074459;28;20447;-70
2022/05/18 08:25:36;;;;;;;5.47;4.93;;;28.30;82.60;;;;;;5074273;28;20979;-70
2022/05/18 08:28:04;;;;;;;5.47;5.07;;;28.80;76.40;;;;;;5074297;28;20441;-70
2022/05/18 08:30:31;;;;;;;5.20;4.70;;;29.70;74.20;;;;;;5074352;28;20449;-70
2022/05/18 08:33:00;;;;;;;4.90;4.50;;;30.70;67.20;;;;;;5074027;28;21001;-70
2022/05/18 08:35:27;;;;;;;5.50;5.00;;;31.90;62.30;;;;;;5074298;28;20467;-70
2022/05/18 08:37:55;;;;;;;4.50;4.10;;;32.80;57.50;;;;;;5074415;28;20445;-70
2022/05/18 08:40:38;;;;;;;5.20;4.80;;;33.90;52.60;;;;;;5074134;28;20460;-68
2022/05/18 08:43:08;;;;;;;4.27;4.07;;;35.30;50.50;;;;;;5073586;28;20946;-69
2022/05/18 08:45:38;;;;;;;4.60;4.30;;;36.10;46.30;;;;;;5074144;28;20485;-68
2022/05/18 08:48:10;;;;;;;5.20;4.63;;;36.30;45.30;;;;;;5073957;28;20990;-68
2022/05/18 08:50:38;;;;;;;4.83;4.50;;;37.00;44.40;;;;;;5074020;28;20436;-69
2022/05/18 08:53:25;;;;;;;4.50;4.20;;;37.70;42.90;;;;;;5073730;28;20935;-69
2022/05/18 08:56:02;;;;;;;4.73;4.43;;;37.20;42.60;;;;;;5073953;28;20463;-69
2022/05/18 08:58:38;;;;;;;4.73;4.43;;;37.60;44.10;;;;;;5073852;28;20498;-69
2022/05/18 09:01:10;;;;;;;4.57;4.27;;;37.80;44.40;;;;;;5073993;28;20436;-69
2022/05/18 09:03:42;;;;;;;5.07;4.67;;;38.00;40.70;;;;;;5073631;28;20437;-69
2022/05/18 09:06:24;;;;;;;4.40;4.10;;;38.20;41.80;;;;;;5073620;28;20485;-69
2022/05/18 09:11:41;;;;;;;4.80;4.50;;;38.60;39.10;;;;;;5073261;28;20437;-69
2022/05/18 09:14:10;;;;;;;5.00;4.60;;;38.40;38.30;;;;;;5073644;28;20433;-69
2022/05/18 09:16:44;;;;;;;4.77;4.30;;;38.10;37.70;;;;;;5073764;28;20543;-69
2022/05/18 09:19:21;;;;;;;8.00;5.73;;;37.80;40.30;;;;;;5073766;28;20838;-69
2022/05/18 09:21:57;;;;;;;5.73;5.33;;;38.60;39.80;;;;;;5073917;28;20443;-69
2022/05/18 09:24:35;;;;;;;4.80;4.50;;;38.40;38.60;;;;;;5073527;28;20444;-68
2022/05/18 09:27:26;;;;;;;4.77;4.37;;;38.30;38.90;;;;;;5073588;28;20461;-69
2022/05/18 09:30:03;;;;;;;4.40;4.10;;;38.50;36.30;;;;;;5073462;28;20476;-69
2022/05/18 09:32:47;;;;;;;4.70;4.40;;;39.20;38.10;;;;;;5073319;28;20938;-69
2022/05/18 09:35:28;;;;;;;4.67;4.23;;;39.70;36.90;;;;;;5073468;28;20465;-69
2022/05/18 09:37:59;;;;;;;4.60;4.30;;;39.70;36.00;;;;;;5073569;28;20443;-68
2022/05/18 09:40:30;;;;;;;3.70;3.40;;;38.90;36.20;;;;;;5073597;28;20459;-68
2022/05/18 09:43:05;;;;;;;3.50;3.30;;;39.10;34.60;;;;;;5073296;28;20441;-69
2022/05/18 09:45:36;;;;;;;3.60;3.40;;;39.20;34.70;;;;;;5073356;28;20460;-69
2022/05/18 09:48:07;;;;;;;3.80;3.57;;;39.10;33.40;;;;;;5073487;28;20525;-69
2022/05/18 09:50:37;;;;;;;3.90;3.70;;;38.80;35.30;;;;;;5073241;28;20443;-69
2022/05/18 09:53:05;;;;;;;3.83;3.63;;;38.90;36.10;;;;;;5073253;28;20441;-69
2022/05/18 09:55:32;;;;;;;3.70;3.50;;;39.60;34.20;;;;;;5077211;28;20846;-69
2022/05/18 09:58:04;;;;;;;4.07;3.77;;;39.90;34.70;;;;;;5077510;28;20448;-69
2022/05/18 10:00:32;;;;;;;3.87;3.57;;;40.00;33.10;;;;;;5077453;28;20440;-69
2022/05/18 10:08:48;;;;;;;3.90;3.70;;;40.20;32.90;;;;;;5077312;28;20498;-69
2022/05/18 10:11:18;;;;;;;4.07;3.77;;;40.20;35.20;;;;;;5076986;28;20440;-69
2022/05/18 10:13:56;;;;;;;4.20;3.80;;;40.10;33.10;;;;;;5076966;28;20437;-69
2022/05/18 10:16:35;;;;;;;3.73;3.20;;;41.00;33.80;;;;;;5076951;28;20834;-69
2022/05/18 10:19:04;;;;;;;3.47;3.20;;;40.70;34.10;;;;;;5077053;28;20436;-69
2022/05/18 10:21:36;;;;;;;3.57;3.37;;;40.30;32.10;;;;;;5076778;28;20456;-69
2022/05/18 10:24:07;;;;;;;3.63;3.37;;;40.70;30.20;;;;;;5077044;28;20515;-69
2022/05/18 10:26:38;;;;;;;3.40;3.10;;;40.60;31.90;;;;;;5076937;28;20468;-69
2022/05/18 10:29:08;;;;;;;3.23;3.10;;;40.80;30.50;;;;;;5076882;28;20456;-69
2022/05/18 10:31:37;;;;;;;3.70;3.40;;;40.80;33.10;;;;;;5076722;28;20441;-69
2022/05/18 10:34:16;;;;;;;3.53;3.33;;;41.00;32.50;;;;;;5076593;28;20814;-69
2022/05/18 10:36:48;;;;;;;3.43;3.23;;;41.20;31.60;;;;;;5076637;28;20480;-69
2022/05/18 10:39:31;;;;;;;3.50;3.30;;;39.70;31.90;;;;;;5076674;28;20452;-69
2022/05/18 10:41:58;;;;;;;3.13;2.93;;;38.20;34.70;;;;;;5076618;28;20441;-69
2022/05/18 10:44:33;;;;;;;3.60;3.30;;;38.00;33.70;;;;;;5076400;28;20886;-69
2022/05/18 10:47:15;;;;;;;3.50;3.30;;;37.30;34.50;;;;;;5076526;28;20460;-68
2022/05/18 10:49:42;;;;;;;3.80;3.50;;;36.20;36.80;;;;;;5076510;28;20861;-68
2022/05/18 10:52:13;;;;;;;3.20;3.00;;;35.70;36.20;;;;;;5076203;28;20444;-69
2022/05/18 10:54:51;;;;;;;4.03;3.80;;;34.90;37.30;;;;;;5076116;28;20878;-70
2022/05/18 10:57:20;;;;;;;3.50;3.20;;;34.00;39.90;;;;;;5075958;28;20575;-70
2022/05/18 10:59:52;;;;;;;3.30;3.10;;;32.80;38.70;;;;;;5076317;28;20807;-70
2022/05/18 11:02:29;;;;;;;4.10;3.73;;;32.20;40.80;;;;;;5076041;28;20926;-70
2022/05/18 11:05:01;;;;;;;3.40;3.10;;;31.70;41.40;;;;;;5075877;28;20451;-70
2022/05/18 11:07:31;;;;;;;3.10;2.90;;;31.10;43.10;;;;;;5075970;28;20430;-70
2022/05/18 11:09:58;;;;;;;3.50;3.20;;;30.80;42.70;;;;;;5076654;28;20444;-70
2022/05/18 11:12:43;;;;;;;3.43;3.20;;;30.70;42.40;;;;;;5075776;28;20943;-70
2022/05/18 11:15:12;;;;;;;3.60;3.30;;;30.60;46.10;;;;;;5075973;28;20446;-70
2022/05/18 11:17:52;;;;;;;2.80;2.70;;;30.60;44.50;;;;;;5075648;28;20531;-70
2022/05/18 11:20:31;;;;;;;3.40;3.20;;;30.80;42.70;;;;;;5075963;28;20525;-70
2022/05/18 11:23:13;;;;;;;3.47;3.27;;;30.90;41.50;;;;;;5075661;28;20450;-70
2022/05/18 11:25:49;;;;;;;3.10;2.80;;;31.00;44.40;;;;;;5075766;28;20466;-70
2022/05/18 11:28:37;;;;;;;4.07;3.67;;;30.70;44.00;;;;;;5075611;28;20881;-70
2022/05/18 11:31:20;;;;;;;3.50;3.30;;;30.60;46.00;;;;;;5075550;28;20481;-70
2022/05/18 11:33:59;;;;;;;2.83;2.67;;;30.50;45.30;;;;;;5075300;28;20803;-71
2022/05/18 11:36:33;;;;;;;3.00;2.80;;;30.60;42.90;;;;;;5075562;28;20485;-70
2022/05/18 11:39:11;;;;;;;3.90;3.50;;;30.60;43.40;;;;;;5075621;28;20438;-70
2022/05/18 11:42:01;;;;;;;3.80;3.60;;;30.80;43.70;;;;;;5076189;28;20455;-70
2022/05/18 11:44:43;;;;;;;3.83;3.40;;;30.90;43.40;;;;;;5075268;28;20446;-70
2022/05/18 11:47:24;;;;;;;3.87;3.50;;;30.80;44.10;;;;;;5075444;28;20818;-70
2022/05/18 11:50:00;;;;;;;4.20;3.83;;;30.60;46.40;;;;;;5075384;28;20799;-70
2022/05/18 11:52:50;;;;;;;3.50;3.30;;;30.40;45.40;;;;;;5075142;28;20455;-70
2022/05/18 11:55:35;;;;;;;3.30;3.00;;;30.30;45.50;;;;;;5074948;28;20479;-70
2022/05/18 11:58:09;;;;;;;3.17;2.87;;;30.30;44.50;;;;;;5074920;28;20548;-70
2022/05/18 12:00:49;;;;;;;3.60;3.40;;;30.40;42.30;;;;;;5075144;28;20494;-70
2022/05/18 12:03:44;;;;;;;3.20;3.00;;;30.40;44.00;;;;;;5074672;28;20445;-70
2022/05/18 12:06:40;;;;;;;4.23;3.93;;;30.40;45.60;;;;;;5074713;28;20978;-70
2022/05/18 12:09:24;;;;;;;4.53;4.13;;;30.40;46.00;;;;;;5074979;28;20444;-70
2022/05/18 12:12:01;;;;;;;3.67;3.47;;;30.40;46.20;;;;;;5074907;28;20481;-70
2022/05/18 12:14:41;;;;;;;3.90;3.60;;;30.20;44.30;;;;;;5074562;28;20437;-70
2022/05/18 12:17:14;;;;;;;4.53;4.23;;;30.10;44.70;;;;;;5073820;28;20491;-70
2022/05/18 12:19:50;;;;;;;4.10;3.80;;;30.10;47.80;;;;;;5074727;28;20440;-71
2022/05/18 12:22:22;;;;;;;4.33;4.03;;;30.00;47.90;;;;;;5074552;28;20441;-70
2022/05/18 12:24:51;;;;;;;3.93;3.63;;;29.90;46.90;;;;;;5074686;28;20441;-70
2022/05/18 12:27:24;;;;;;;4.30;3.90;;;30.00;46.80;;;;;;5074268;28;21001;-70
2022/05/18 12:29:52;;;;;;;3.97;3.67;;;29.90;48.70;;;;;;5074484;28;20441;-70
2022/05/18 12:32:20;;;;;;;4.10;3.80;;;29.90;47.30;;;;;;5074049;28;20468;-70
2022/05/18 12:34:56;;;;;;;4.00;3.70;;;29.80;50.50;;;;;;5074475;28;20524;-70
2022/05/18 12:37:30;;;;;;;3.47;3.23;;;29.80;46.60;;;;;;5074442;28;20515;-70
2022/05/18 12:40:08;;;;;;;3.63;3.37;;;29.90;45.70;;;;;;5074406;28;20447;-70
2022/05/18 12:42:42;;;;;;;3.97;3.70;;;29.90;45.30;;;;;;5074095;28;20455;-70
2022/05/18 12:45:14;;;;;;;3.77;3.47;;;30.00;47.50;;;;;;5074355;28;20448;-70
2022/05/18 12:47:45;;;;;;;3.37;3.17;;;30.00;47.20;;;;;;5074043;28;20886;-70
2022/05/18 12:50:17;;;;;;;3.57;3.37;;;30.10;46.10;;;;;;5074174;28;20448;-70
2022/05/18 12:52:53;;;;;;;3.30;3.10;;;30.30;45.40;;;;;;5073933;28;20451;-70
2022/05/18 12:55:39;;;;;;;3.70;3.33;;;30.40;44.40;;;;;;5073670;28;20476;-71
2022/05/18 12:58:25;;;;;;;3.40;3.20;;;30.50;44.00;;;;;;5073431;28;20898;-70
2022/05/18 13:01:01;;;;;;;3.63;3.40;;;30.60;43.40;;;;;;5073943;28;20442;-70
2022/05/18 13:03:51;;;;;;;4.07;3.80;;;30.60;44.20;;;;;;5073670;28;20484;-71
2022/05/18 13:06:29;;;;;;;3.50;3.30;;;30.60;44.70;;;;;;5073955;28;20549;-70
2022/05/18 13:09:05;;;;;;;4.37;3.97;;;30.60;44.40;;;;;;5073931;28;20439;-70
2022/05/18 13:11:46;;;;;;;4.57;4.27;;;30.60;44.70;;;;;;5073875;28;20433;-70
2022/05/18 13:14:26;;;;;;;3.30;3.10;;;30.40;44.90;;;;;;5074425;28;20787;-70
2022/05/18 13:17:18;;;;;;;4.57;4.27;;;30.30;45.40;;;;;;5073757;28;20493;-70
2022/05/18 13:19:56;;;;;;;4.13;3.83;;;30.10;45.30;;;;;;5070942;28;21034;-70
2022/05/18 13:22:47;;;;;;;3.73;3.50;;;30.10;45.90;;;;;;5073540;28;20791;-70